createdAt,value
2022-08-27T00:00:03.323Z,974.67
2022-08-27T00:01:09.039Z,974.70
2022-08-27T00:02:03.590Z,974.73
2022-08-27T00:03:03.489Z,974.64
2022-08-27T00:04:03.733Z,974.67
2022-08-27T00:05:03.401Z,974.73
2022-08-27T00:06:03.473Z,974.70
2022-08-27T00:07:03.095Z,974.76
2022-08-27T00:08:03.258Z,974.65
2022-08-27T00:09:03.198Z,974.79
2022-08-27T00:10:03.954Z,974.67
2022-08-27T00:11:03.140Z,974.79
2022-08-27T00:12:03.274Z,974.76
2022-08-27T00:13:03.312Z,974.82
2022-08-27T00:14:03.325Z,974.67
2022-08-27T00:15:03.352Z,974.73
2022-08-27T00:16:03.528Z,974.73
2022-08-27T00:17:03.573Z,974.73
2022-08-27T00:18:03.729Z,974.73
2022-08-27T00:19:03.605Z,974.73
2022-08-27T00:20:03.591Z,974.73
2022-08-27T00:21:03.594Z,974.58
2022-08-27T00:22:03.649Z,974.67
2022-08-27T00:23:03.575Z,974.64
2022-08-27T00:24:03.616Z,974.59
2022-08-27T00:25:03.735Z,974.62
2022-08-27T00:26:03.838Z,974.64
2022-08-27T00:27:03.887Z,974.70
2022-08-27T00:28:03.768Z,974.62
2022-08-27T00:29:03.833Z,974.67
2022-08-27T00:30:02.922Z,974.62
2022-08-27T00:31:02.976Z,974.59
2022-08-27T00:32:03.235Z,974.53
2022-08-27T00:33:03.034Z,974.44
2022-08-27T00:34:03.144Z,974.56
2022-08-27T00:35:03.319Z,974.59
2022-08-27T00:36:03.386Z,974.62
2022-08-27T00:37:03.425Z,974.59
2022-08-27T00:38:03.405Z,974.68
2022-08-27T00:39:03.491Z,974.53
2022-08-27T00:40:03.595Z,974.62
2022-08-27T00:41:03.611Z,974.62
2022-08-27T00:42:03.658Z,974.65
2022-08-27T00:43:03.680Z,974.62
2022-08-27T00:44:03.892Z,974.47
2022-08-27T00:45:03.924Z,974.62
2022-08-27T00:46:03.111Z,974.65
2022-08-27T00:47:03.057Z,974.59
2022-08-27T00:48:03.231Z,974.59
2022-08-27T00:49:03.051Z,974.56
2022-08-27T00:50:03.163Z,974.50
2022-08-27T00:51:03.305Z,974.56
2022-08-27T00:52:03.372Z,974.62
2022-08-27T00:53:03.335Z,974.53
2022-08-27T00:54:03.377Z,974.62
2022-08-27T00:55:03.419Z,974.45
2022-08-27T00:56:03.580Z,974.53
2022-08-27T00:57:03.682Z,974.50
2022-08-27T00:58:06.038Z,974.50
2022-08-27T00:59:03.765Z,974.53
2022-08-27T01:00:03.684Z,974.50
2022-08-27T01:01:04.005Z,974.71
2022-08-27T01:02:03.957Z,974.53
2022-08-27T01:03:03.773Z,974.50
2022-08-27T01:04:03.867Z,974.56
2022-08-27T01:05:03.848Z,974.56
2022-08-27T01:06:03.008Z,974.53
2022-08-27T01:07:02.998Z,974.56
2022-08-27T01:08:03.036Z,974.48
2022-08-27T01:09:02.997Z,974.51
2022-08-27T01:10:03.078Z,974.48
2022-08-27T01:11:03.943Z,974.42
2022-08-27T01:12:03.055Z,974.62
2022-08-27T01:13:04.033Z,974.59
2022-08-27T01:14:03.128Z,974.56
2022-08-27T01:15:03.225Z,974.68
2022-08-27T01:16:03.358Z,974.53
2022-08-27T01:17:03.468Z,974.65
2022-08-27T01:18:03.579Z,974.62
2022-08-27T01:19:03.371Z,974.68
2022-08-27T01:20:03.465Z,974.74
2022-08-27T01:21:04.179Z,974.65
2022-08-27T01:22:03.667Z,974.74
2022-08-27T01:23:03.609Z,974.68
2022-08-27T01:24:03.738Z,974.80
2022-08-27T01:25:03.884Z,974.77
2022-08-27T01:26:03.836Z,974.74
2022-08-27T01:27:02.999Z,974.62
2022-08-27T01:28:03.306Z,974.83
2022-08-27T01:29:03.198Z,974.74
2022-08-27T01:30:03.338Z,974.80
2022-08-27T01:31:03.108Z,974.71
2022-08-27T01:32:03.110Z,974.74
2022-08-27T01:33:03.264Z,974.62
2022-08-27T01:34:03.202Z,974.71
2022-08-27T01:35:03.297Z,974.74
2022-08-27T01:36:03.397Z,974.80
2022-08-27T01:37:03.690Z,974.74
2022-08-27T01:38:09.760Z,974.68
2022-08-27T01:39:05.715Z,974.80
2022-08-27T01:40:04.391Z,974.77
2022-08-27T01:41:03.833Z,974.68
2022-08-27T01:42:03.892Z,974.77
2022-08-27T01:43:02.893Z,974.65
2022-08-27T01:44:03.002Z,974.71
2022-08-27T01:45:06.124Z,974.74
2022-08-27T01:46:03.385Z,974.68
2022-08-27T01:47:03.454Z,974.68
2022-08-27T01:48:03.497Z,974.68
2022-08-27T01:49:03.531Z,974.77
2022-08-27T01:50:03.561Z,974.74
2022-08-27T01:51:03.561Z,974.83
2022-08-27T01:52:03.549Z,974.68
2022-08-27T01:53:03.785Z,974.74
2022-08-27T01:54:03.761Z,974.83
2022-08-27T01:55:03.729Z,974.91
2022-08-27T01:56:03.833Z,974.77
2022-08-27T01:57:02.942Z,974.74
2022-08-27T01:58:03.019Z,974.80
2022-08-27T01:59:03.005Z,974.71
2022-08-27T02:00:03.096Z,974.65
2022-08-27T02:01:03.706Z,974.71
2022-08-27T02:02:03.771Z,974.71
2022-08-27T02:03:03.635Z,974.77
2022-08-27T02:04:03.739Z,974.68
2022-08-27T02:05:03.706Z,974.80
2022-08-27T02:06:03.928Z,974.77
2022-08-27T02:07:03.930Z,974.74
2022-08-27T02:08:03.917Z,974.71
2022-08-27T02:09:02.923Z,974.80
2022-08-27T02:10:02.976Z,974.74
2022-08-27T02:11:03.061Z,974.74
2022-08-27T02:12:03.145Z,974.69
2022-08-27T02:13:03.140Z,974.74
2022-08-27T02:14:12.455Z,974.83
2022-08-27T02:15:03.201Z,974.74
2022-08-27T02:16:03.449Z,974.83
2022-08-27T02:17:03.397Z,974.77
2022-08-27T02:18:03.457Z,974.68
2022-08-27T02:19:03.683Z,974.83
2022-08-27T02:20:03.358Z,974.74
2022-08-27T02:21:03.368Z,974.71
2022-08-27T02:22:03.513Z,974.95
2022-08-27T02:23:03.482Z,974.83
2022-08-27T02:24:03.581Z,974.71
2022-08-27T02:25:03.467Z,974.97
2022-08-27T02:26:03.526Z,974.86
2022-08-27T02:27:03.572Z,974.89
2022-08-27T02:28:03.724Z,974.77
2022-08-27T02:29:03.673Z,974.86
2022-08-27T02:30:03.629Z,974.92
2022-08-27T02:31:03.856Z,974.77
2022-08-27T02:32:03.792Z,974.77
2022-08-27T02:33:03.820Z,974.83
2022-08-27T02:34:03.814Z,974.86
2022-08-27T02:35:03.053Z,974.92
2022-08-27T02:36:03.557Z,974.74
2022-08-27T02:37:03.078Z,974.89
2022-08-27T02:38:03.070Z,974.86
2022-08-27T02:39:03.080Z,974.80
2022-08-27T02:40:03.216Z,974.86
2022-08-27T02:41:03.091Z,974.86
2022-08-27T02:42:03.038Z,974.89
2022-08-27T02:43:03.235Z,974.96
2022-08-27T02:44:11.121Z,974.86
2022-08-27T02:45:03.569Z,974.91
2022-08-27T02:46:03.686Z,974.89
2022-08-27T02:47:03.866Z,974.83
2022-08-27T02:48:04.007Z,974.83
2022-08-27T02:49:03.894Z,974.89
2022-08-27T02:50:03.850Z,974.83
2022-08-27T02:51:02.952Z,974.80
2022-08-27T02:52:02.959Z,974.80
2022-08-27T02:53:03.080Z,974.83
2022-08-27T02:54:03.592Z,974.80
2022-08-27T02:55:03.071Z,974.83
2022-08-27T02:56:03.096Z,974.80
2022-08-27T02:57:03.058Z,974.83
2022-08-27T02:58:03.077Z,974.74
2022-08-27T02:59:03.072Z,974.80
2022-08-27T03:00:03.173Z,974.88
2022-08-27T03:01:03.159Z,974.74
2022-08-27T03:02:03.615Z,974.74
2022-08-27T03:03:03.494Z,974.80
2022-08-27T03:04:03.506Z,974.74
2022-08-27T03:05:03.437Z,974.74
2022-08-27T03:06:03.490Z,974.80
2022-08-27T03:07:03.469Z,974.80
2022-08-27T03:08:03.753Z,974.71
2022-08-27T03:09:03.765Z,974.77
2022-08-27T03:10:03.748Z,974.88
2022-08-27T03:11:03.744Z,974.68
2022-08-27T03:12:03.835Z,974.77
2022-08-27T03:13:03.778Z,974.82
2022-08-27T03:14:03.868Z,974.71
2022-08-27T03:15:02.955Z,974.79
2022-08-27T03:16:03.099Z,974.74
2022-08-27T03:17:03.080Z,974.68
2022-08-27T03:18:03.271Z,974.79
2022-08-27T03:19:03.211Z,974.82
2022-08-27T03:20:03.312Z,974.77
2022-08-27T03:21:03.444Z,974.74
2022-08-27T03:22:03.454Z,974.79
2022-08-27T03:23:05.180Z,974.74
2022-08-27T03:24:14.605Z,974.71
2022-08-27T03:25:03.712Z,974.79
2022-08-27T03:26:03.784Z,974.56
2022-08-27T03:27:03.799Z,974.77
2022-08-27T03:28:13.444Z,974.77
2022-08-27T03:29:03.777Z,974.68
2022-08-27T03:30:04.507Z,974.62
2022-08-27T03:31:03.896Z,974.62
2022-08-27T03:32:03.831Z,974.79
2022-08-27T03:33:06.105Z,974.71
2022-08-27T03:34:02.976Z,974.68
2022-08-27T03:35:02.912Z,974.71
2022-08-27T03:36:03.035Z,974.71
2022-08-27T03:37:03.048Z,974.74
2022-08-27T03:38:03.070Z,974.68
2022-08-27T03:39:03.086Z,974.80
2022-08-27T03:40:03.418Z,974.74
2022-08-27T03:41:03.178Z,974.65
2022-08-27T03:42:03.330Z,974.74
2022-08-27T03:43:03.371Z,974.65
2022-08-27T03:44:03.429Z,974.74
2022-08-27T03:45:03.516Z,974.68
2022-08-27T03:46:03.548Z,974.68
2022-08-27T03:47:03.540Z,974.62
2022-08-27T03:48:03.769Z,974.71
2022-08-27T03:49:04.592Z,974.65
2022-08-27T03:50:03.719Z,974.63
2022-08-27T03:51:03.793Z,974.63
2022-08-27T03:52:03.001Z,974.68
2022-08-27T03:53:03.041Z,974.65
2022-08-27T03:54:03.064Z,974.63
2022-08-27T03:55:03.115Z,974.74
2022-08-27T03:56:03.314Z,974.71
2022-08-27T03:57:03.304Z,974.71
2022-08-27T03:58:03.472Z,974.66
2022-08-27T03:59:03.463Z,974.71
2022-08-27T04:00:03.567Z,974.66
2022-08-27T04:01:03.609Z,974.57
2022-08-27T04:02:03.705Z,974.69
2022-08-27T04:03:03.861Z,974.57
2022-08-27T04:04:03.578Z,974.66
2022-08-27T04:05:03.555Z,974.72
2022-08-27T04:06:03.542Z,974.63
2022-08-27T04:07:03.562Z,974.48
2022-08-27T04:08:03.725Z,974.63
2022-08-27T04:09:03.658Z,974.66
2022-08-27T04:10:03.697Z,974.72
2022-08-27T04:11:03.676Z,974.63
2022-08-27T04:12:03.721Z,974.48
2022-08-27T04:13:03.624Z,974.66
2022-08-27T04:14:17.378Z,974.72
2022-08-27T04:15:03.746Z,974.57
2022-08-27T04:16:03.886Z,974.69
2022-08-27T04:17:03.893Z,974.54
2022-08-27T04:18:02.930Z,974.54
2022-08-27T04:19:02.997Z,974.60
2022-08-27T04:20:34.876Z,974.63
2022-08-27T04:21:03.075Z,974.60
2022-08-27T04:22:03.107Z,974.57
2022-08-27T04:23:03.144Z,974.51
2022-08-27T04:24:03.097Z,974.54
2022-08-27T04:25:10.238Z,974.54
2022-08-27T04:26:03.629Z,974.66
2022-08-27T04:27:03.635Z,974.54
2022-08-27T04:28:03.859Z,974.66
2022-08-27T04:29:03.745Z,974.57
2022-08-27T04:30:03.877Z,974.77
2022-08-27T04:31:04.006Z,974.66
2022-08-27T04:32:02.993Z,974.54
2022-08-27T04:33:02.975Z,974.54
2022-08-27T04:34:02.937Z,974.72
2022-08-27T04:35:02.901Z,974.74
2022-08-27T04:36:03.088Z,974.63
2022-08-27T04:37:03.089Z,974.72
2022-08-27T04:38:03.143Z,974.60
2022-08-27T04:39:03.017Z,974.60
2022-08-27T04:40:03.822Z,974.69
2022-08-27T04:41:02.875Z,974.57
2022-08-27T04:42:03.156Z,974.75
2022-08-27T04:43:03.043Z,974.63
2022-08-27T04:44:03.021Z,974.66
2022-08-27T04:45:03.119Z,974.72
2022-08-27T04:46:03.121Z,974.77
2022-08-27T04:47:03.007Z,974.77
2022-08-27T04:48:03.188Z,974.83
2022-08-27T04:49:10.075Z,974.72
2022-08-27T04:50:06.060Z,974.72
2022-08-27T04:51:04.390Z,974.83
2022-08-27T04:52:03.561Z,974.89
2022-08-27T04:53:05.135Z,974.66
2022-08-27T04:54:03.948Z,974.80
2022-08-27T04:55:03.255Z,974.86
2022-08-27T04:56:03.210Z,974.86
2022-08-27T04:57:03.332Z,974.77
2022-08-27T04:58:03.499Z,974.66
2022-08-27T04:59:03.351Z,974.86
2022-08-27T05:00:03.431Z,974.78
2022-08-27T05:01:03.531Z,974.86
2022-08-27T05:02:05.285Z,974.80
2022-08-27T05:03:03.627Z,974.92
2022-08-27T05:04:03.624Z,974.81
2022-08-27T05:05:04.064Z,974.83
2022-08-27T05:06:03.892Z,974.89
2022-08-27T05:07:03.908Z,974.78
2022-08-27T05:08:07.282Z,974.81
2022-08-27T05:09:03.921Z,974.87
2022-08-27T05:10:03.880Z,974.97
2022-08-27T05:11:02.952Z,974.87
2022-08-27T05:12:03.027Z,974.87
2022-08-27T05:13:03.192Z,974.87
2022-08-27T05:14:03.215Z,974.93
2022-08-27T05:15:03.112Z,974.93
2022-08-27T05:16:03.241Z,974.98
2022-08-27T05:17:03.275Z,974.93
2022-08-27T05:18:03.282Z,974.90
2022-08-27T05:19:03.229Z,974.93
2022-08-27T05:20:03.168Z,974.93
2022-08-27T05:21:03.170Z,974.87
2022-08-27T05:22:03.175Z,974.93
2022-08-27T05:23:03.132Z,974.95
2022-08-27T05:24:03.269Z,974.87
2022-08-27T05:25:03.170Z,974.98
2022-08-27T05:26:03.383Z,974.81
2022-08-27T05:27:03.218Z,974.90
2022-08-27T05:28:03.200Z,974.93
2022-08-27T05:29:03.185Z,974.84
2022-08-27T05:30:03.738Z,974.98
2022-08-27T05:31:03.995Z,974.95
2022-08-27T05:32:03.860Z,974.98
2022-08-27T05:33:03.013Z,975.01
2022-08-27T05:34:11.426Z,974.93
2022-08-27T05:35:03.188Z,974.98
2022-08-27T05:36:03.258Z,974.98
2022-08-27T05:37:03.163Z,974.95
2022-08-27T05:38:03.215Z,974.93
2022-08-27T05:39:03.229Z,974.90
2022-08-27T05:40:03.436Z,975.04
2022-08-27T05:41:03.307Z,975.04
2022-08-27T05:42:03.351Z,974.85
2022-08-27T05:43:03.348Z,974.98
2022-08-27T05:45:03.396Z,974.91
2022-08-27T05:46:03.670Z,974.95
2022-08-27T05:47:03.420Z,974.82
2022-08-27T05:48:03.547Z,975.01
2022-08-27T05:49:03.502Z,974.93
2022-08-27T05:50:03.434Z,974.95
2022-08-27T05:51:03.517Z,974.95
2022-08-27T05:52:03.595Z,974.98
2022-08-27T05:53:03.552Z,974.93
2022-08-27T05:54:09.085Z,974.84
2022-08-27T05:55:03.570Z,974.90
2022-08-27T05:56:04.038Z,974.98
2022-08-27T05:57:03.762Z,974.90
2022-08-27T05:58:03.819Z,974.98
2022-08-27T05:59:03.813Z,975.03
2022-08-27T06:00:03.163Z,974.98
2022-08-27T06:01:10.040Z,975.01
2022-08-27T06:02:03.082Z,974.98
2022-08-27T06:03:03.140Z,975.09
2022-08-27T06:04:03.137Z,974.87
2022-08-27T06:05:03.233Z,975.00
2022-08-27T06:06:03.102Z,975.09
2022-08-27T06:07:03.178Z,975.09
2022-08-27T06:08:03.381Z,975.09
2022-08-27T06:09:03.328Z,975.03
2022-08-27T06:10:03.396Z,975.00
2022-08-27T06:11:03.549Z,975.03
2022-08-27T06:12:03.617Z,975.00
2022-08-27T06:13:03.638Z,974.97
2022-08-27T06:14:03.636Z,975.03
2022-08-27T06:15:03.574Z,975.03
2022-08-27T06:16:06.988Z,975.15
2022-08-27T06:17:03.784Z,975.12
2022-08-27T06:18:03.860Z,975.18
2022-08-27T06:19:03.834Z,975.12
2022-08-27T06:20:03.846Z,975.03
2022-08-27T06:21:03.799Z,975.18
2022-08-27T06:22:11.005Z,975.15
2022-08-27T06:23:03.972Z,974.97
2022-08-27T06:24:03.132Z,975.18
2022-08-27T06:25:03.082Z,975.12
2022-08-27T06:26:03.087Z,975.12
2022-08-27T06:27:03.163Z,975.15
2022-08-27T06:28:03.302Z,975.03
2022-08-27T06:29:03.267Z,974.97
2022-08-27T06:30:03.249Z,975.09
2022-08-27T06:31:03.330Z,975.21
2022-08-27T06:32:03.292Z,975.21
2022-08-27T06:33:03.262Z,975.21
2022-08-27T06:34:07.964Z,975.09
2022-08-27T06:35:03.438Z,975.15
2022-08-27T06:36:03.604Z,975.09
2022-08-27T06:37:03.695Z,975.21
2022-08-27T06:38:03.773Z,975.18
2022-08-27T06:39:03.849Z,975.34
2022-08-27T06:40:04.053Z,975.30
2022-08-27T06:41:03.812Z,975.15
2022-08-27T06:42:03.850Z,975.27
2022-08-27T06:43:03.888Z,975.24
2022-08-27T06:44:03.863Z,975.30
2022-08-27T06:45:02.995Z,975.33
2022-08-27T06:46:03.311Z,975.24
2022-08-27T06:47:02.956Z,975.24
2022-08-27T06:48:03.262Z,975.33
2022-08-27T06:49:03.206Z,975.18
2022-08-27T06:50:03.289Z,975.18
2022-08-27T06:51:03.400Z,975.30
2022-08-27T06:52:04.354Z,975.27
2022-08-27T06:53:03.523Z,975.40
2022-08-27T06:54:03.424Z,975.35
2022-08-27T06:55:03.469Z,975.35
2022-08-27T06:56:03.498Z,975.33
2022-08-27T06:57:03.494Z,975.24
2022-08-27T06:58:03.614Z,975.30
2022-08-27T06:59:05.246Z,975.30
2022-08-27T07:00:03.018Z,975.46
2022-08-27T07:01:03.234Z,975.33
2022-08-27T07:02:03.130Z,975.27
2022-08-27T07:03:03.047Z,975.46
2022-08-27T07:04:03.027Z,975.33
2022-08-27T07:05:03.210Z,975.41
2022-08-27T07:06:03.147Z,975.35
2022-08-27T07:07:03.105Z,975.38
2022-08-27T07:08:03.302Z,975.35
2022-08-27T07:09:03.221Z,975.41
2022-08-27T07:10:04.606Z,975.46
2022-08-27T07:11:03.264Z,975.35
2022-08-27T07:12:03.182Z,975.49
2022-08-27T07:13:03.202Z,975.58
2022-08-27T07:14:03.237Z,975.61
2022-08-27T07:15:05.087Z,975.49
2022-08-27T07:16:03.471Z,975.49
2022-08-27T07:17:03.879Z,975.58
2022-08-27T07:18:05.751Z,975.61
2022-08-27T07:19:04.576Z,975.58
2022-08-27T07:20:03.549Z,975.64
2022-08-27T07:21:03.664Z,975.72
2022-08-27T07:22:03.798Z,975.67
2022-08-27T07:23:05.682Z,975.61
2022-08-27T07:24:04.040Z,975.58
2022-08-27T07:25:03.022Z,975.61
2022-08-27T07:26:03.233Z,975.58
2022-08-27T07:27:03.200Z,975.73
2022-08-27T07:28:03.106Z,975.79
2022-08-27T07:29:03.330Z,975.61
2022-08-27T07:30:03.237Z,975.67
2022-08-27T07:31:03.430Z,975.76
2022-08-27T07:32:03.223Z,975.73
2022-08-27T07:33:03.268Z,975.76
2022-08-27T07:34:03.573Z,975.87
2022-08-27T07:35:03.642Z,975.82
2022-08-27T07:36:03.694Z,975.82
2022-08-27T07:37:03.832Z,975.79
2022-08-27T07:38:04.002Z,975.76
2022-08-27T07:39:03.031Z,975.73
2022-08-27T07:40:03.191Z,975.73
2022-08-27T07:41:02.959Z,975.84
2022-08-27T07:42:03.073Z,975.73
2022-08-27T07:43:03.192Z,975.73
2022-08-27T07:44:04.929Z,975.70
2022-08-27T07:45:03.273Z,975.61
2022-08-27T07:46:03.381Z,975.84
2022-08-27T07:47:03.304Z,975.72
2022-08-27T07:48:03.505Z,975.81
2022-08-27T07:49:03.463Z,975.72
2022-08-27T07:50:03.327Z,975.81
2022-08-27T07:51:03.312Z,975.84
2022-08-27T07:52:03.263Z,975.78
2022-08-27T07:53:03.272Z,975.72
2022-08-27T07:54:03.494Z,975.75
2022-08-27T07:55:03.432Z,975.75
2022-08-27T07:56:03.500Z,975.75
2022-08-27T07:57:03.535Z,975.86
2022-08-27T07:58:03.606Z,975.75
2022-08-27T07:59:03.561Z,975.86
2022-08-27T08:00:03.499Z,975.83
2022-08-27T08:01:03.545Z,975.92
2022-08-27T08:02:03.588Z,975.83
2022-08-27T08:03:03.453Z,976.01
2022-08-27T08:04:03.455Z,975.92
2022-08-27T08:05:03.495Z,975.98
2022-08-27T08:06:03.472Z,975.86
2022-08-27T08:07:03.443Z,975.89
2022-08-27T08:08:03.649Z,975.98
2022-08-27T08:09:03.827Z,975.92
2022-08-27T08:10:03.498Z,976.00
2022-08-27T08:11:03.574Z,975.95
2022-08-27T08:12:03.482Z,975.89
2022-08-27T08:13:03.520Z,975.94
2022-08-27T08:14:03.589Z,975.92
2022-08-27T08:15:03.686Z,975.94
2022-08-27T08:16:03.543Z,975.97
2022-08-27T08:17:10.792Z,975.94
2022-08-27T08:18:03.800Z,975.91
2022-08-27T08:19:03.778Z,975.94
2022-08-27T08:20:35.831Z,976.00
2022-08-27T08:21:03.413Z,976.09
2022-08-27T08:22:06.242Z,975.89
2022-08-27T08:23:03.504Z,976.09
2022-08-27T08:24:03.510Z,975.97
2022-08-27T08:25:03.554Z,975.94
2022-08-27T08:26:03.496Z,975.86
2022-08-27T08:27:07.935Z,975.88
2022-08-27T08:28:03.640Z,975.85
2022-08-27T08:29:03.460Z,976.03
2022-08-27T08:30:03.452Z,976.06
2022-08-27T08:31:03.677Z,976.00
2022-08-27T08:32:03.489Z,976.09
2022-08-27T08:33:03.588Z,975.85
2022-08-27T08:34:03.108Z,975.88
2022-08-27T08:35:03.248Z,976.03
2022-08-27T08:36:03.206Z,975.94
2022-08-27T08:37:03.253Z,976.00
2022-08-27T08:38:03.323Z,976.06
2022-08-27T08:39:03.465Z,975.91
2022-08-27T08:40:03.851Z,975.91
2022-08-27T08:41:03.606Z,976.03
2022-08-27T08:42:03.670Z,976.06
2022-08-27T08:43:03.637Z,975.91
2022-08-27T08:44:06.116Z,976.03
2022-08-27T08:45:03.584Z,975.97
2022-08-27T08:46:03.857Z,976.09
2022-08-27T08:47:03.665Z,975.91
2022-08-27T08:48:03.739Z,976.12
2022-08-27T08:49:04.361Z,976.00
2022-08-27T08:50:03.832Z,976.00
2022-08-27T08:51:03.929Z,976.09
2022-08-27T08:52:03.871Z,976.09
2022-08-27T08:53:03.588Z,976.09
2022-08-27T08:54:03.570Z,976.12
2022-08-27T08:55:03.700Z,976.09
2022-08-27T08:56:04.533Z,976.03
2022-08-27T08:57:03.119Z,976.09
2022-08-27T08:58:03.249Z,976.09
2022-08-27T08:59:03.185Z,976.06
2022-08-27T09:00:03.205Z,976.09
2022-08-27T09:01:03.223Z,976.00
2022-08-27T09:02:03.115Z,976.00
2022-08-27T09:03:03.362Z,976.03
2022-08-27T09:04:03.423Z,976.00
2022-08-27T09:05:03.228Z,976.03
2022-08-27T09:06:03.484Z,975.97
2022-08-27T09:07:03.506Z,976.06
2022-08-27T09:08:34.422Z,976.03
2022-08-27T09:09:03.797Z,976.03
2022-08-27T09:10:03.772Z,976.03
2022-08-27T09:11:03.760Z,976.00
2022-08-27T09:12:03.745Z,976.09
2022-08-27T09:13:03.843Z,975.97
2022-08-27T09:14:03.889Z,976.03
2022-08-27T09:15:05.334Z,975.91
2022-08-27T09:16:03.043Z,976.00
2022-08-27T09:17:11.374Z,976.14
2022-08-27T09:18:04.835Z,975.91
2022-08-27T09:19:06.265Z,976.00
2022-08-27T09:20:03.218Z,976.08
2022-08-27T09:21:10.151Z,976.05
2022-08-27T09:22:02.892Z,976.08
2022-08-27T09:23:03.055Z,975.99
2022-08-27T09:24:03.197Z,975.94
2022-08-27T09:25:03.304Z,975.97
2022-08-27T09:26:03.452Z,976.05
2022-08-27T09:27:03.183Z,975.99
2022-08-27T09:28:03.393Z,976.02
2022-08-27T09:29:03.328Z,975.96
2022-08-27T09:30:03.597Z,975.91
2022-08-27T09:31:03.498Z,975.93
2022-08-27T09:32:03.422Z,975.96
2022-08-27T09:33:03.524Z,975.90
2022-08-27T09:34:03.590Z,975.90
2022-08-27T09:35:03.651Z,975.93
2022-08-27T09:36:03.622Z,975.87
2022-08-27T09:37:03.594Z,975.87
2022-08-27T09:38:03.806Z,975.99
2022-08-27T09:39:03.783Z,975.96
2022-08-27T09:40:03.865Z,975.96
2022-08-27T09:41:03.723Z,975.90
2022-08-27T09:42:03.922Z,975.87
2022-08-27T09:43:03.868Z,975.87
2022-08-27T09:44:03.865Z,975.84
2022-08-27T09:45:03.851Z,975.87
2022-08-27T09:46:03.106Z,975.89
2022-08-27T09:47:03.052Z,975.92
2022-08-27T09:48:03.347Z,975.75
2022-08-27T09:49:03.137Z,975.86
2022-08-27T09:50:07.345Z,975.89
2022-08-27T09:51:03.208Z,975.83
2022-08-27T09:52:03.287Z,975.86
2022-08-27T09:53:03.211Z,975.92
2022-08-27T09:54:03.317Z,975.95
2022-08-27T09:55:05.664Z,975.86
2022-08-27T09:56:03.607Z,975.92
2022-08-27T09:57:03.366Z,975.86
2022-08-27T09:58:03.355Z,975.86
2022-08-27T09:59:03.627Z,975.83
2022-08-27T10:00:03.511Z,975.80
2022-08-27T10:01:03.643Z,975.98
2022-08-27T10:02:05.443Z,975.86
2022-08-27T10:03:03.846Z,975.92
2022-08-27T10:04:03.974Z,976.01
2022-08-27T10:05:03.894Z,975.95
2022-08-27T10:06:02.954Z,975.95
2022-08-27T10:07:03.083Z,975.86
2022-08-27T10:08:03.231Z,975.91
2022-08-27T10:09:07.588Z,975.80
2022-08-27T10:10:03.243Z,975.94
2022-08-27T10:11:03.200Z,975.91
2022-08-27T10:12:03.281Z,975.82
2022-08-27T10:13:10.902Z,975.94
2022-08-27T10:14:03.277Z,975.94
2022-08-27T10:15:03.328Z,975.85
2022-08-27T10:16:03.586Z,975.88
2022-08-27T10:17:03.547Z,975.82
2022-08-27T10:18:03.490Z,975.82
2022-08-27T10:19:03.727Z,975.91
2022-08-27T10:20:03.750Z,975.94
2022-08-27T10:21:06.129Z,975.73
2022-08-27T10:22:03.811Z,975.91
2022-08-27T10:23:03.741Z,975.85
2022-08-27T10:24:03.847Z,975.88
2022-08-27T10:25:03.865Z,975.93
2022-08-27T10:26:02.961Z,975.90
2022-08-27T10:27:02.927Z,975.85
2022-08-27T10:28:03.111Z,975.82
2022-08-27T10:29:03.137Z,975.87
2022-08-27T10:30:03.168Z,975.76
2022-08-27T10:31:03.292Z,975.87
2022-08-27T10:32:03.437Z,975.90
2022-08-27T10:33:04.366Z,975.93
2022-08-27T10:34:03.769Z,975.87
2022-08-27T10:35:03.255Z,975.87
2022-08-27T10:36:04.167Z,975.99
2022-08-27T10:37:07.941Z,975.90
2022-08-27T10:38:03.544Z,975.93
2022-08-27T10:39:03.548Z,975.82
2022-08-27T10:40:03.850Z,975.85
2022-08-27T10:41:03.671Z,975.82
2022-08-27T10:42:03.633Z,975.93
2022-08-27T10:43:03.716Z,975.99
2022-08-27T10:44:03.792Z,975.90
2022-08-27T10:45:03.897Z,975.90
2022-08-27T10:46:03.112Z,975.99
2022-08-27T10:47:03.056Z,975.87
2022-08-27T10:48:03.078Z,975.90
2022-08-27T10:49:03.032Z,975.90
2022-08-27T10:50:03.064Z,975.99
2022-08-27T10:51:03.004Z,976.02
2022-08-27T10:52:08.663Z,976.05
2022-08-27T10:53:03.253Z,976.08
2022-08-27T10:54:03.219Z,975.87
2022-08-27T10:55:07.357Z,975.87
2022-08-27T10:56:03.382Z,976.11
2022-08-27T10:57:40.178Z,975.93
2022-08-27T10:58:03.515Z,976.08
2022-08-27T10:59:03.638Z,976.02
2022-08-27T11:00:03.683Z,976.02
2022-08-27T11:01:03.985Z,975.99
2022-08-27T11:02:04.027Z,975.99
2022-08-27T11:03:03.875Z,976.05
2022-08-27T11:04:02.998Z,976.13
2022-08-27T11:05:03.034Z,976.13
2022-08-27T11:06:03.099Z,976.13
2022-08-27T11:07:03.179Z,976.19
2022-08-27T11:08:03.354Z,976.07
2022-08-27T11:09:08.068Z,976.07
2022-08-27T11:10:03.142Z,976.01
2022-08-27T11:12:10.191Z,976.10
2022-08-27T11:12:15.934Z,976.13
2022-08-27T11:13:03.217Z,976.10
2022-08-27T11:14:03.272Z,976.18
2022-08-27T11:15:03.272Z,976.24
2022-08-27T11:16:03.326Z,976.27
2022-08-27T11:17:03.438Z,976.12
2022-08-27T11:18:03.589Z,976.21
2022-08-27T11:19:03.679Z,976.24
2022-08-27T11:20:03.819Z,976.21
2022-08-27T11:21:03.921Z,976.03
2022-08-27T11:22:02.981Z,976.06
2022-08-27T11:23:02.929Z,976.03
2022-08-27T11:24:03.091Z,976.12
2022-08-27T11:25:03.158Z,975.94
2022-08-27T11:26:03.283Z,976.06
2022-08-27T11:27:03.315Z,976.03
2022-08-27T11:28:03.338Z,975.97
2022-08-27T11:29:03.412Z,976.05
2022-08-27T11:30:03.404Z,975.85
2022-08-27T11:31:03.461Z,975.93
2022-08-27T11:32:03.620Z,975.99
2022-08-27T11:33:03.347Z,975.99
2022-08-27T11:34:03.345Z,975.93
2022-08-27T11:35:03.398Z,976.07
2022-08-27T11:36:03.470Z,975.93
2022-08-27T11:37:03.418Z,975.96
2022-08-27T11:38:04.560Z,975.93
2022-08-27T11:39:03.437Z,975.93
2022-08-27T11:40:03.490Z,976.02
2022-08-27T11:41:03.620Z,976.10
2022-08-27T11:42:03.622Z,976.02
2022-08-27T11:43:03.484Z,976.19
2022-08-27T11:44:03.434Z,976.08
2022-08-27T11:45:03.389Z,976.02
2022-08-27T11:46:03.488Z,976.02
2022-08-27T11:47:03.726Z,976.14
2022-08-27T11:48:03.516Z,976.14
2022-08-27T11:49:03.557Z,976.11
2022-08-27T11:50:04.819Z,976.17
2022-08-27T11:51:03.596Z,976.17
2022-08-27T11:52:03.677Z,976.17
2022-08-27T11:53:03.778Z,976.17
2022-08-27T11:54:03.633Z,976.17
2022-08-27T11:55:03.618Z,976.14
2022-08-27T11:56:03.734Z,976.17
2022-08-27T11:57:03.756Z,975.97
2022-08-27T11:58:03.801Z,976.14
2022-08-27T11:59:02.950Z,976.17
2022-08-27T12:00:03.016Z,976.14
2022-08-27T12:01:05.258Z,976.17
2022-08-27T12:02:03.163Z,976.11
2022-08-27T12:03:03.313Z,975.99
2022-08-27T12:04:03.405Z,976.05
2022-08-27T12:05:03.197Z,976.11
2022-08-27T12:06:03.237Z,976.08
2022-08-27T12:07:03.223Z,976.02
2022-08-27T12:08:03.373Z,976.11
2022-08-27T12:09:03.422Z,976.08
2022-08-27T12:10:03.489Z,976.02
2022-08-27T12:11:03.412Z,975.93
2022-08-27T12:12:03.682Z,976.10
2022-08-27T12:13:03.712Z,975.96
2022-08-27T12:14:03.624Z,975.96
2022-08-27T12:15:03.717Z,976.01
2022-08-27T12:16:03.914Z,975.98
2022-08-27T12:17:03.799Z,975.95
2022-08-27T12:18:02.905Z,975.87
2022-08-27T12:19:04.758Z,975.84
2022-08-27T12:20:02.931Z,975.95
2022-08-27T12:21:03.132Z,975.92
2022-08-27T12:22:03.038Z,976.04
2022-08-27T12:23:03.070Z,975.98
2022-08-27T12:24:03.262Z,975.98
2022-08-27T12:25:03.207Z,976.01
2022-08-27T12:26:03.290Z,975.92
2022-08-27T12:27:03.389Z,975.89
2022-08-27T12:28:03.469Z,976.10
2022-08-27T12:29:03.669Z,975.95